SBPJ

Brigadeiro Lysias Rodrigues Airport

Palmas, Brazil
TAF SBPJ 252200Z 2600/2612 14004KT 9999 FEW025 TN25/2608Z TX33/2612Z BECMG 2604/2606 FEW030 FEW040TCU BECMG 2610/2612 FEW040 RMK PEW
Issued Valid From Valid To
Apr-25 @ 22:00 UTC
(8 hours ago)
Apr-26 @ 00:00 UTC
(6 hours ago)
Apr-26 @ 12:00 UTC
(in 6 hours)
Expired Click to View Apr-26 @ 00:00 to Apr-26 @ 04:00
TAF SBPJ 252200Z 2600/2612 14004KT 9999 FEW025 TN25/2608Z TX33/2612Z
Wind Visibility Clouds
140° at 4 knots 10,000+ meters
  • Few at 2,500' AGL
Becoming Apr-26 @ 04:00 to Apr-26 @ 10:00
BECMG 2604/2606 FEW030 FEW040TCU
Wind Visibility Clouds
140° at 4 knots 10,000+ meters
  • Few at 3,000' AGL
  • Few at 4,000' AGL
Becoming Apr-26 @ 10:00 to Apr-26 @ 12:00
BECMG 2610/2612 FEW040 RMK PEW
Wind Visibility Clouds
140° at 4 knots 10,000+ meters
  • Few at 4,000' AGL
TAF SBPJ 252200Z 2600/2612 14004KT 9999 FEW025 TN25/2608Z TX33/2612Z BECMG 2604/2606 FEW030 FEW040TCU BECMG 2610/2612 FEW040 RMK PEW
Issued Apr-25 @ 22:00 UTC
(8 hours ago)
Valid From Apr-26 @ 00:00 UTC
(6 hours ago)
Valid To Apr-26 @ 12:00 UTC
(in 6 hours)
Apr-26 @ 00:00 - Apr-26 @ 04:00
Wind Visibility
140° at 4 knots 10,000+ meters
Clouds
  • Few at 2,500' AGL
Becoming Apr-26 @ 04:00 - Apr-26 @ 10:00
Wind Visibility
140° at 4 knots 10,000+ meters
Clouds
  • Few at 3,000' AGL
  • Few at 4,000' AGL
Becoming Apr-26 @ 10:00 - Apr-26 @ 12:00
Wind Visibility
140° at 4 knots 10,000+ meters
Clouds
  • Few at 4,000' AGL